sensor_id;sensor_type;location;lat;lon;timestamp;pressure;altitude;pressure_sealevel;temperature;humidity
83633;BME280;73595;53.084;6.696;2023-12-20T00:02:12;101330.44;;;5.01;96.44
83633;BME280;73595;53.084;6.696;2023-12-20T00:04:37;101325.78;;;4.94;96.38
83633;BME280;73595;53.084;6.696;2023-12-20T00:07:03;101310.66;;;4.86;96.05
83633;BME280;73595;53.084;6.696;2023-12-20T00:09:28;101318.63;;;4.96;96.50
83633;BME280;73595;53.084;6.696;2023-12-20T00:11:53;101260.22;;;4.60;96.59
83633;BME280;73595;53.084;6.696;2023-12-20T00:14:19;101305.28;;;4.87;96.40
83633;BME280;73595;53.084;6.696;2023-12-20T00:16:44;101275.97;;;4.71;96.56
83633;BME280;73595;53.084;6.696;2023-12-20T00:19:09;101314.47;;;4.82;96.74
83633;BME280;73595;53.084;6.696;2023-12-20T00:21:35;101305.06;;;4.79;96.70
83633;BME280;73595;53.084;6.696;2023-12-20T00:24:01;101313.06;;;4.78;96.46
83633;BME280;73595;53.084;6.696;2023-12-20T00:26:27;101274.03;;;4.62;96.70
83633;BME280;73595;53.084;6.696;2023-12-20T00:28:53;101296.22;;;4.80;96.56
83633;BME280;73595;53.084;6.696;2023-12-20T00:31:18;101297.88;;;4.81;96.65
83633;BME280;73595;53.084;6.696;2023-12-20T00:33:44;101290.13;;;4.80;96.78
83633;BME280;73595;53.084;6.696;2023-12-20T00:36:11;101285.50;;;4.72;96.88
83633;BME280;73595;53.084;6.696;2023-12-20T00:38:36;101295.38;;;4.69;96.80
83633;BME280;73595;53.084;6.696;2023-12-20T00:41:03;101293.50;;;4.71;96.95
83633;BME280;73595;53.084;6.696;2023-12-20T00:43:28;101304.69;;;4.84;96.21
83633;BME280;73595;53.084;6.696;2023-12-20T00:45:53;101314.25;;;4.85;96.52
83633;BME280;73595;53.084;6.696;2023-12-20T00:48:20;101297.53;;;4.86;96.63
83633;BME280;73595;53.084;6.696;2023-12-20T00:50:46;101282.13;;;4.81;96.44
83633;BME280;73595;53.084;6.696;2023-12-20T00:53:11;101285.00;;;4.78;96.57
83633;BME280;73595;53.084;6.696;2023-12-20T00:55:36;101221.09;;;4.46;96.45
83633;BME280;73595;53.084;6.696;2023-12-20T00:58:02;101289.03;;;4.82;96.54
83633;BME280;73595;53.084;6.696;2023-12-20T01:00:27;101293.47;;;4.93;96.55
83633;BME280;73595;53.084;6.696;2023-12-20T01:02:53;101252.91;;;4.75;96.21
83633;BME280;73595;53.084;6.696;2023-12-20T01:05:18;101262.78;;;4.82;96.07
83633;BME280;73595;53.084;6.696;2023-12-20T01:07:44;101263.19;;;4.78;96.23
83633;BME280;73595;53.084;6.696;2023-12-20T01:10:10;101267.47;;;4.90;96.21
83633;BME280;73595;53.084;6.696;2023-12-20T01:12:36;101264.00;;;4.89;96.43
83633;BME280;73595;53.084;6.696;2023-12-20T01:15:02;101244.31;;;4.84;96.47
83633;BME280;73595;53.084;6.696;2023-12-20T01:17:28;101250.41;;;4.84;96.46
83633;BME280;73595;53.084;6.696;2023-12-20T01:19:53;101237.38;;;4.83;96.50
83633;BME280;73595;53.084;6.696;2023-12-20T01:22:19;101191.50;;;4.55;96.49
83633;BME280;73595;53.084;6.696;2023-12-20T01:24:44;101265.75;;;4.89;96.54
83633;BME280;73595;53.084;6.696;2023-12-20T01:27:10;101260.84;;;4.96;96.47
83633;BME280;73595;53.084;6.696;2023-12-20T01:29:37;101242.41;;;4.86;97.05
83633;BME280;73595;53.084;6.696;2023-12-20T01:32:02;101218.31;;;4.70;96.96
83633;BME280;73595;53.084;6.696;2023-12-20T01:34:29;101233.09;;;4.82;97.13
83633;BME280;73595;53.084;6.696;2023-12-20T01:36:54;101232.59;;;4.88;96.77
83633;BME280;73595;53.084;6.696;2023-12-20T01:39:20;101241.69;;;4.84;96.71
83633;BME280;73595;53.084;6.696;2023-12-20T01:41:45;101183.41;;;4.47;96.86
83633;BME280;73595;53.084;6.696;2023-12-20T01:44:11;101254.00;;;4.83;96.79
83633;BME280;73595;53.084;6.696;2023-12-20T01:46:36;101244.91;;;4.76;97.05
83633;BME280;73595;53.084;6.696;2023-12-20T01:49:03;101210.34;;;4.60;97.01
83633;BME280;73595;53.084;6.696;2023-12-20T01:51:28;101260.78;;;4.86;96.67
83633;BME280;73595;53.084;6.696;2023-12-20T01:53:57;101243.84;;;4.68;97.33
83633;BME280;73595;53.084;6.696;2023-12-20T01:56:23;101234.44;;;4.65;97.36
83633;BME280;73595;53.084;6.696;2023-12-20T01:58:49;101230.84;;;4.66;97.28
83633;BME280;73595;53.084;6.696;2023-12-20T02:01:15;101252.91;;;4.86;96.40
83633;BME280;73595;53.084;6.696;2023-12-20T02:03:41;101229.88;;;4.78;95.93
83633;BME280;73595;53.084;6.696;2023-12-20T02:06:10;101191.22;;;4.69;95.31
83633;BME280;73595;53.084;6.696;2023-12-20T02:08:36;101215.81;;;4.79;95.90
83633;BME280;73595;53.084;6.696;2023-12-20T02:11:02;101249.78;;;4.92;95.80
83633;BME280;73595;53.084;6.696;2023-12-20T02:13:27;101214.59;;;4.83;95.60
83633;BME280;73595;53.084;6.696;2023-12-20T02:15:54;101214.22;;;4.88;94.87
83633;BME280;73595;53.084;6.696;2023-12-20T02:18:20;101209.78;;;4.88;95.06
83633;BME280;73595;53.084;6.696;2023-12-20T02:20:45;101216.47;;;4.93;95.71
83633;BME280;73595;53.084;6.696;2023-12-20T02:23:10;101197.84;;;4.96;95.67
83633;BME280;73595;53.084;6.696;2023-12-20T02:25:37;101198.47;;;4.88;95.83
83633;BME280;73595;53.084;6.696;2023-12-20T02:28:06;101189.28;;;4.82;96.09
83633;BME280;73595;53.084;6.696;2023-12-20T02:30:32;101226.63;;;4.97;96.05
83633;BME280;73595;53.084;6.696;2023-12-20T02:32:59;101217.91;;;4.97;96.10
83633;BME280;73595;53.084;6.696;2023-12-20T02:35:25;101213.50;;;4.97;96.31
83633;BME280;73595;53.084;6.696;2023-12-20T02:37:50;101208.47;;;4.94;96.17
83633;BME280;73595;53.084;6.696;2023-12-20T02:40:15;101205.28;;;4.91;96.02
83633;BME280;73595;53.084;6.696;2023-12-20T02:42:41;101168.84;;;4.65;96.68
83633;BME280;73595;53.084;6.696;2023-12-20T02:45:07;101202.06;;;4.87;96.40
83633;BME280;73595;53.084;6.696;2023-12-20T02:47:32;101124.25;;;4.43;96.42
83633;BME280;73595;53.084;6.696;2023-12-20T02:49:57;101195.50;;;4.81;96.76
83633;BME280;73595;53.084;6.696;2023-12-20T02:52:23;101179.34;;;4.65;96.97
83633;BME280;73595;53.084;6.696;2023-12-20T02:54:50;101172.88;;;4.69;97.00
83633;BME280;73595;53.084;6.696;2023-12-20T02:57:17;101176.66;;;4.76;97.03
83633;BME280;73595;53.084;6.696;2023-12-20T02:59:44;101161.06;;;4.63;97.13
83633;BME280;73595;53.084;6.696;2023-12-20T03:02:10;101132.59;;;4.59;97.13
83633;BME280;73595;53.084;6.696;2023-12-20T03:04:36;101166.63;;;4.81;96.82
83633;BME280;73595;53.084;6.696;2023-12-20T03:07:01;101157.69;;;4.84;96.62
83633;BME280;73595;53.084;6.696;2023-12-20T03:09:26;101156.84;;;4.83;96.37
83633;BME280;73595;53.084;6.696;2023-12-20T03:11:53;101177.53;;;5.09;95.95
83633;BME280;73595;53.084;6.696;2023-12-20T03:14:24;101090.84;;;4.56;95.91
83633;BME280;73595;53.084;6.696;2023-12-20T03:16:53;101052.88;;;4.39;95.99
83633;BME280;73595;53.084;6.696;2023-12-20T03:19:18;101168.78;;;5.08;96.41
83633;BME280;73595;53.084;6.696;2023-12-20T03:21:45;101145.56;;;5.04;95.83
83633;BME280;73595;53.084;6.696;2023-12-20T03:24:12;101150.41;;;5.08;95.56
83633;BME280;73595;53.084;6.696;2023-12-20T03:26:37;101155.88;;;5.16;95.62
83633;BME280;73595;53.084;6.696;2023-12-20T03:29:04;101105.75;;;4.87;95.32
83633;BME280;73595;53.084;6.696;2023-12-20T03:31:30;101139.53;;;5.13;95.35
83633;BME280;73595;53.084;6.696;2023-12-20T03:33:56;101150.88;;;5.34;94.78
83633;BME280;73595;53.084;6.696;2023-12-20T03:36:21;101154.69;;;5.41;94.55
83633;BME280;73595;53.084;6.696;2023-12-20T03:38:46;101125.38;;;5.25;94.95
83633;BME280;73595;53.084;6.696;2023-12-20T03:41:12;101138.19;;;5.39;94.84
83633;BME280;73595;53.084;6.696;2023-12-20T03:43:38;101148.59;;;5.41;95.10
83633;BME280;73595;53.084;6.696;2023-12-20T03:46:03;101137.63;;;5.36;94.71
83633;BME280;73595;53.084;6.696;2023-12-20T03:48:32;101142.16;;;5.34;94.86
83633;BME280;73595;53.084;6.696;2023-12-20T03:50:58;101133.25;;;5.25;94.52
83633;BME280;73595;53.084;6.696;2023-12-20T03:53:23;101121.09;;;5.24;93.96
83633;BME280;73595;53.084;6.696;2023-12-20T03:55:48;101128.09;;;5.35;94.27
83633;BME280;73595;53.084;6.696;2023-12-20T03:58:14;101133.03;;;5.28;93.96
83633;BME280;73595;53.084;6.696;2023-12-20T04:00:39;101126.81;;;5.29;93.68
83633;BME280;73595;53.084;6.696;2023-12-20T04:03:05;101134.28;;;5.34;93.55
83633;BME280;73595;53.084;6.696;2023-12-20T04:05:34;101123.25;;;5.40;93.85
83633;BME280;73595;53.084;6.696;2023-12-20T04:08:01;101131.22;;;5.50;93.30
83633;BME280;73595;53.084;6.696;2023-12-20T04:10:27;101012.72;;;4.80;93.03
83633;BME280;73595;53.084;6.696;2023-12-20T04:12:53;101118.44;;;5.45;93.35
83633;BME280;73595;53.084;6.696;2023-12-20T04:15:20;101129.03;;;5.55;93.39
83633;BME280;73595;53.084;6.696;2023-12-20T04:17:45;101067.97;;;5.21;92.92
83633;BME280;73595;53.084;6.696;2023-12-20T04:20:10;101120.19;;;5.56;93.51
83633;BME280;73595;53.084;6.696;2023-12-20T04:22:37;101113.13;;;5.56;93.15
83633;BME280;73595;53.084;6.696;2023-12-20T04:25:02;101106.59;;;5.51;93.55
83633;BME280;73595;53.084;6.696;2023-12-20T04:27:28;101096.25;;;5.59;93.09
83633;BME280;73595;53.084;6.696;2023-12-20T04:29:53;101107.91;;;5.66;93.06
83633;BME280;73595;53.084;6.696;2023-12-20T04:32:19;101112.53;;;5.74;92.28
83633;BME280;73595;53.084;6.696;2023-12-20T04:34:44;101094.34;;;5.61;92.46
83633;BME280;73595;53.084;6.696;2023-12-20T04:37:09;101108.09;;;5.74;91.85
83633;BME280;73595;53.084;6.696;2023-12-20T04:39:34;101087.72;;;5.66;91.99
83633;BME280;73595;53.084;6.696;2023-12-20T04:42:00;101086.34;;;5.72;91.81
83633;BME280;73595;53.084;6.696;2023-12-20T04:44:25;101111.03;;;5.81;91.53
83633;BME280;73595;53.084;6.696;2023-12-20T04:46:53;101051.78;;;5.46;91.84
83633;BME280;73595;53.084;6.696;2023-12-20T04:49:18;101106.03;;;5.78;92.07
83633;BME280;73595;53.084;6.696;2023-12-20T04:51:44;101102.19;;;5.82;91.74
83633;BME280;73595;53.084;6.696;2023-12-20T04:54:10;101110.22;;;5.80;92.18
83633;BME280;73595;53.084;6.696;2023-12-20T04:56:35;101098.13;;;5.68;92.13
83633;BME280;73595;53.084;6.696;2023-12-20T04:59:02;101066.47;;;5.49;92.70
83633;BME280;73595;53.084;6.696;2023-12-20T05:01:27;101116.31;;;5.81;92.73
83633;BME280;73595;53.084;6.696;2023-12-20T05:03:53;101078.06;;;5.67;92.34
83633;BME280;73595;53.084;6.696;2023-12-20T05:06:18;101102.25;;;5.91;92.00
83633;BME280;73595;53.084;6.696;2023-12-20T05:08:43;101056.13;;;5.57;92.36
83633;BME280;73595;53.084;6.696;2023-12-20T05:11:09;101098.88;;;5.89;92.03
83633;BME280;73595;53.084;6.696;2023-12-20T05:13:34;101091.97;;;5.88;91.82
83633;BME280;73595;53.084;6.696;2023-12-20T05:16:03;101090.13;;;5.79;92.21
83633;BME280;73595;53.084;6.696;2023-12-20T05:18:28;101110.56;;;5.96;91.46
83633;BME280;73595;53.084;6.696;2023-12-20T05:20:54;101112.13;;;5.99;91.77
83633;BME280;73595;53.084;6.696;2023-12-20T05:23:19;101114.84;;;5.97;92.31
83633;BME280;73595;53.084;6.696;2023-12-20T05:25:45;101101.47;;;6.01;91.77
83633;BME280;73595;53.084;6.696;2023-12-20T05:28:10;101122.78;;;6.07;91.46
83633;BME280;73595;53.084;6.696;2023-12-20T05:30:37;101092.47;;;6.03;91.43
83633;BME280;73595;53.084;6.696;2023-12-20T05:33:04;101082.75;;;6.04;90.82
83633;BME280;73595;53.084;6.696;2023-12-20T05:35:29;101087.06;;;6.05;91.43
83633;BME280;73595;53.084;6.696;2023-12-20T05:37:54;100942.03;;;5.19;91.13
83633;BME280;73595;53.084;6.696;2023-12-20T05:40:21;101084.03;;;6.09;90.78
83633;BME280;73595;53.084;6.696;2023-12-20T05:42:46;101082.81;;;6.13;90.65
83633;BME280;73595;53.084;6.696;2023-12-20T05:45:11;101093.63;;;6.20;90.90
83633;BME280;73595;53.084;6.696;2023-12-20T05:47:37;101090.56;;;6.24;90.97
83633;BME280;73595;53.084;6.696;2023-12-20T05:50:02;101079.06;;;6.16;90.95
83633;BME280;73595;53.084;6.696;2023-12-20T05:52:29;101096.53;;;6.27;91.12
83633;BME280;73595;53.084;6.696;2023-12-20T05:54:54;101088.06;;;6.23;91.89
83633;BME280;73595;53.084;6.696;2023-12-20T05:57:23;101052.47;;;6.09;91.88
83633;BME280;73595;53.084;6.696;2023-12-20T05:59:49;101054.97;;;6.11;91.42
83633;BME280;73595;53.084;6.696;2023-12-20T06:02:16;101056.34;;;6.15;91.47
83633;BME280;73595;53.084;6.696;2023-12-20T06:04:42;101082.66;;;6.24;91.16
83633;BME280;73595;53.084;6.696;2023-12-20T06:07:10;101073.56;;;6.29;90.86
83633;BME280;73595;53.084;6.696;2023-12-20T06:09:38;101067.47;;;6.28;90.97
83633;BME280;73595;53.084;6.696;2023-12-20T06:12:04;101060.78;;;6.24;91.07
83633;BME280;73595;53.084;6.696;2023-12-20T06:14:30;101064.16;;;6.26;91.03
83633;BME280;73595;53.084;6.696;2023-12-20T06:16:56;101066.09;;;6.34;90.93
83633;BME280;73595;53.084;6.696;2023-12-20T06:19:22;101067.47;;;6.28;91.23
83633;BME280;73595;53.084;6.696;2023-12-20T06:21:53;101013.41;;;5.95;91.41
83633;BME280;73595;53.084;6.696;2023-12-20T06:24:19;101071.22;;;6.35;91.11
83633;BME280;73595;53.084;6.696;2023-12-20T06:26:46;101048.06;;;6.29;90.35
83633;BME280;73595;53.084;6.696;2023-12-20T06:29:16;101042.25;;;6.35;90.15
83633;BME280;73595;53.084;6.696;2023-12-20T06:31:42;101067.47;;;6.47;90.07
83633;BME280;73595;53.084;6.696;2023-12-20T06:34:07;101048.22;;;6.37;90.19
83633;BME280;73595;53.084;6.696;2023-12-20T06:36:32;101062.50;;;6.44;90.42
83633;BME280;73595;53.084;6.696;2023-12-20T06:38:58;101044.22;;;6.53;89.89
83633;BME280;73595;53.084;6.696;2023-12-20T06:41:26;101044.22;;;6.62;89.01
83633;BME280;73595;53.084;6.696;2023-12-20T06:43:51;101035.22;;;6.45;90.02
83633;BME280;73595;53.084;6.696;2023-12-20T06:46:24;100985.63;;;6.21;89.21
83633;BME280;73595;53.084;6.696;2023-12-20T06:48:50;101056.69;;;6.60;89.67
83633;BME280;73595;53.084;6.696;2023-12-20T06:51:19;101033.41;;;6.46;90.18
83633;BME280;73595;53.084;6.696;2023-12-20T06:53:45;101044.22;;;6.53;90.81
83633;BME280;73595;53.084;6.696;2023-12-20T06:56:11;101043.94;;;6.56;90.30
83633;BME280;73595;53.084;6.696;2023-12-20T06:58:41;101032.41;;;6.57;90.22
83633;BME280;73595;53.084;6.696;2023-12-20T07:01:17;101025.78;;;6.53;90.95
83633;BME280;73595;53.084;6.696;2023-12-20T07:03:56;101039.09;;;6.51;91.89
83633;BME280;73595;53.084;6.696;2023-12-20T07:06:34;100990.59;;;6.34;91.36
83633;BME280;73595;53.084;6.696;2023-12-20T07:09:00;101015.13;;;6.44;91.34
83633;BME280;73595;53.084;6.696;2023-12-20T07:11:30;101031.88;;;6.53;91.49
83633;BME280;73595;53.084;6.696;2023-12-20T07:13:57;101005.00;;;6.40;91.56
83633;BME280;73595;53.084;6.696;2023-12-20T07:16:22;101016.50;;;6.48;91.18
83633;BME280;73595;53.084;6.696;2023-12-20T07:18:48;101010.69;;;6.55;90.20
83633;BME280;73595;53.084;6.696;2023-12-20T07:21:13;101004.44;;;6.56;90.11
83633;BME280;73595;53.084;6.696;2023-12-20T07:23:39;101020.66;;;6.61;90.67
83633;BME280;73595;53.084;6.696;2023-12-20T07:26:06;101018.44;;;6.66;89.80
83633;BME280;73595;53.084;6.696;2023-12-20T07:28:33;101023.72;;;6.66;90.02
83633;BME280;73595;53.084;6.696;2023-12-20T07:31:00;101027.59;;;6.71;89.42
83633;BME280;73595;53.084;6.696;2023-12-20T07:33:25;100955.00;;;6.30;89.85
83633;BME280;73595;53.084;6.696;2023-12-20T07:35:50;101012.63;;;6.72;88.77
83633;BME280;73595;53.084;6.696;2023-12-20T07:38:18;101015.38;;;6.80;89.16
83633;BME280;73595;53.084;6.696;2023-12-20T07:40:43;101010.66;;;6.74;89.20
83633;BME280;73595;53.084;6.696;2023-12-20T07:43:09;100988.25;;;6.70;88.52
83633;BME280;73595;53.084;6.696;2023-12-20T07:45:34;101009.69;;;6.85;88.71
83633;BME280;73595;53.084;6.696;2023-12-20T07:48:00;101005.41;;;6.84;88.82
83633;BME280;73595;53.084;6.696;2023-12-20T07:50:25;100937.53;;;6.48;88.46
83633;BME280;73595;53.084;6.696;2023-12-20T07:52:51;101023.13;;;6.91;87.89
83633;BME280;73595;53.084;6.696;2023-12-20T07:55:16;101020.91;;;6.96;87.61
83633;BME280;73595;53.084;6.696;2023-12-20T07:57:48;101026.84;;;6.98;87.99
83633;BME280;73595;53.084;6.696;2023-12-20T08:00:15;101006.22;;;6.84;88.23
83633;BME280;73595;53.084;6.696;2023-12-20T08:02:40;100978.50;;;6.80;87.82
83633;BME280;73595;53.084;6.696;2023-12-20T08:05:07;101029.19;;;7.01;87.90
83633;BME280;73595;53.084;6.696;2023-12-20T08:07:34;101022.69;;;7.05;87.27
83633;BME280;73595;53.084;6.696;2023-12-20T08:10:00;101021.81;;;7.15;86.89
83633;BME280;73595;53.084;6.696;2023-12-20T08:12:26;100895.03;;;6.34;87.27
83633;BME280;73595;53.084;6.696;2023-12-20T08:14:53;100914.00;;;6.47;87.15
83633;BME280;73595;53.084;6.696;2023-12-20T08:17:19;100951.81;;;6.65;87.42
83633;BME280;73595;53.084;6.696;2023-12-20T08:19:44;101036.41;;;7.09;87.30
83633;BME280;73595;53.084;6.696;2023-12-20T08:22:10;100986.00;;;6.85;87.20
83633;BME280;73595;53.084;6.696;2023-12-20T08:24:36;101006.75;;;6.97;87.16
83633;BME280;73595;53.084;6.696;2023-12-20T08:27:04;101008.53;;;7.06;86.63
83633;BME280;73595;53.084;6.696;2023-12-20T08:29:31;101028.88;;;7.14;86.67
83633;BME280;73595;53.084;6.696;2023-12-20T08:31:56;101020.59;;;7.09;87.05
83633;BME280;73595;53.084;6.696;2023-12-20T08:34:23;101017.25;;;7.07;86.17
83633;BME280;73595;53.084;6.696;2023-12-20T08:36:51;101021.03;;;7.04;86.59
83633;BME280;73595;53.084;6.696;2023-12-20T08:39:17;100989.72;;;6.82;86.80
83633;BME280;73595;53.084;6.696;2023-12-20T08:41:42;101031.56;;;7.04;86.55
83633;BME280;73595;53.084;6.696;2023-12-20T08:44:08;101021.44;;;7.00;85.76
83633;BME280;73595;53.084;6.696;2023-12-20T08:46:34;101032.50;;;7.13;84.86
83633;BME280;73595;53.084;6.696;2023-12-20T08:49:02;101040.56;;;7.12;85.10
83633;BME280;73595;53.084;6.696;2023-12-20T08:51:28;101000.09;;;6.93;83.81
83633;BME280;73595;53.084;6.696;2023-12-20T08:53:54;100977.56;;;6.71;84.00
83633;BME280;73595;53.084;6.696;2023-12-20T08:56:21;101028.06;;;7.14;83.10
83633;BME280;73595;53.084;6.696;2023-12-20T08:58:53;101037.50;;;7.16;83.54
83633;BME280;73595;53.084;6.696;2023-12-20T09:01:19;101049.44;;;7.11;84.35
83633;BME280;73595;53.084;6.696;2023-12-20T09:03:45;101047.38;;;7.04;85.56
83633;BME280;73595;53.084;6.696;2023-12-20T09:06:10;101028.41;;;6.91;86.63
83633;BME280;73595;53.084;6.696;2023-12-20T09:08:36;101007.63;;;6.78;86.94
83633;BME280;73595;53.084;6.696;2023-12-20T09:11:06;100957.63;;;6.49;88.02
83633;BME280;73595;53.084;6.696;2023-12-20T09:13:32;101068.47;;;6.85;88.33
83633;BME280;73595;53.084;6.696;2023-12-20T09:16:19;101086.16;;;5.33;92.61
83633;BME280;73595;53.084;6.696;2023-12-20T09:19:09;101084.09;;;4.74;94.42
83633;BME280;73595;53.084;6.696;2023-12-20T09:22:13;101108.50;;;4.86;95.38
83633;BME280;73595;53.084;6.696;2023-12-20T09:25:24;101093.63;;;4.75;95.17
83633;BME280;73595;53.084;6.696;2023-12-20T09:27:57;101132.44;;;5.04;94.84
83633;BME280;73595;53.084;6.696;2023-12-20T09:30:28;101138.50;;;5.04;95.59
83633;BME280;73595;53.084;6.696;2023-12-20T09:32:55;101098.19;;;4.94;95.14
83633;BME280;73595;53.084;6.696;2023-12-20T09:35:25;101096.03;;;4.99;93.59
83633;BME280;73595;53.084;6.696;2023-12-20T09:38:12;101119.34;;;5.13;92.88
83633;BME280;73595;53.084;6.696;2023-12-20T09:40:42;101128.06;;;5.14;91.85
83633;BME280;73595;53.084;6.696;2023-12-20T09:43:14;101095.91;;;5.01;92.39
83633;BME280;73595;53.084;6.696;2023-12-20T09:46:06;101104.81;;;5.09;91.84
83633;BME280;73595;53.084;6.696;2023-12-20T09:48:36;101124.22;;;5.18;91.37
83633;BME280;73595;53.084;6.696;2023-12-20T09:51:12;101113.06;;;5.05;91.85
83633;BME280;73595;53.084;6.696;2023-12-20T09:53:41;101119.47;;;5.12;91.33
83633;BME280;73595;53.084;6.696;2023-12-20T09:56:08;101116.84;;;5.12;91.33
83633;BME280;73595;53.084;6.696;2023-12-20T09:58:37;101149.34;;;5.32;90.80
83633;BME280;73595;53.084;6.696;2023-12-20T10:01:06;101153.78;;;5.31;91.18
83633;BME280;73595;53.084;6.696;2023-12-20T10:03:33;101123.13;;;5.21;90.68
83633;BME280;73595;53.084;6.696;2023-12-20T10:06:00;101118.84;;;5.40;89.20
83633;BME280;73595;53.084;6.696;2023-12-20T10:08:25;101128.72;;;5.48;88.58
83633;BME280;73595;53.084;6.696;2023-12-20T10:10:52;101128.66;;;5.38;88.56
83633;BME280;73595;53.084;6.696;2023-12-20T10:13:18;101097.44;;;5.24;89.38
83633;BME280;73595;53.084;6.696;2023-12-20T10:15:45;101142.34;;;5.63;88.08
83633;BME280;73595;53.084;6.696;2023-12-20T10:18:19;101118.00;;;5.61;88.44
83633;BME280;73595;53.084;6.696;2023-12-20T10:20:46;101128.38;;;5.62;88.79
83633;BME280;73595;53.084;6.696;2023-12-20T10:23:12;101149.41;;;5.62;87.61
83633;BME280;73595;53.084;6.696;2023-12-20T10:25:39;101126.28;;;5.56;88.40
83633;BME280;73595;53.084;6.696;2023-12-20T10:28:15;101139.97;;;5.60;88.37
83633;BME280;73595;53.084;6.696;2023-12-20T10:30:45;101125.97;;;5.50;88.25
83633;BME280;73595;53.084;6.696;2023-12-20T10:33:11;101068.50;;;5.35;88.94
83633;BME280;73595;53.084;6.696;2023-12-20T10:35:39;101116.81;;;5.75;88.32
83633;BME280;73595;53.084;6.696;2023-12-20T10:38:10;101113.53;;;5.82;88.63
83633;BME280;73595;53.084;6.696;2023-12-20T10:40:36;101123.22;;;5.82;88.70
83633;BME280;73595;53.084;6.696;2023-12-20T10:43:02;101115.03;;;5.75;89.22
83633;BME280;73595;53.084;6.696;2023-12-20T10:45:31;101077.84;;;5.59;89.20
83633;BME280;73595;53.084;6.696;2023-12-20T10:48:05;101096.34;;;5.78;88.44
83633;BME280;73595;53.084;6.696;2023-12-20T10:50:31;101107.59;;;5.90;88.22
83633;BME280;73595;53.084;6.696;2023-12-20T10:53:00;101079.50;;;5.81;87.67
83633;BME280;73595;53.084;6.696;2023-12-20T10:55:27;101064.84;;;5.88;87.63
83633;BME280;73595;53.084;6.696;2023-12-20T10:57:54;101099.97;;;6.08;87.66
83633;BME280;73595;53.084;6.696;2023-12-20T11:00:25;101096.59;;;5.96;87.67
83633;BME280;73595;53.084;6.696;2023-12-20T11:02:52;101098.31;;;5.86;88.24
83633;BME280;73595;53.084;6.696;2023-12-20T11:08:16;101094.84;;;5.85;87.56
83633;BME280;73595;53.084;6.696;2023-12-20T11:11:21;101079.44;;;5.71;87.15
83633;BME280;73595;53.084;6.696;2023-12-20T11:16:37;101016.13;;;5.43;86.29
83633;BME280;73595;53.084;6.696;2023-12-20T11:19:06;101076.06;;;5.90;86.13
83633;BME280;73595;53.084;6.696;2023-12-20T11:21:33;101074.03;;;5.93;86.31
83633;BME280;73595;53.084;6.696;2023-12-20T11:24:00;101087.06;;;6.05;85.93
83633;BME280;73595;53.084;6.696;2023-12-20T11:26:30;101084.03;;;6.00;84.90
83633;BME280;73595;53.084;6.696;2023-12-20T11:29:33;101090.94;;;6.10;85.37
83633;BME280;73595;53.084;6.696;2023-12-20T11:35:29;101051.63;;;5.99;85.66
83633;BME280;73595;53.084;6.696;2023-12-20T11:38:21;101081.44;;;6.19;84.92
83633;BME280;73595;53.084;6.696;2023-12-20T11:40:53;101083.34;;;6.17;84.96
83633;BME280;73595;53.084;6.696;2023-12-20T11:43:39;101083.53;;;6.25;84.86
83633;BME280;73595;53.084;6.696;2023-12-20T11:46:09;101085.19;;;6.26;83.80
83633;BME280;73595;53.084;6.696;2023-12-20T11:48:38;101086.56;;;6.30;84.15
83633;BME280;73595;53.084;6.696;2023-12-20T11:51:33;101083.69;;;6.53;83.19
83633;BME280;73595;53.084;6.696;2023-12-20T11:54:11;101034.38;;;6.35;84.16
83633;BME280;73595;53.084;6.696;2023-12-20T11:56:39;101021.75;;;6.48;82.68
83633;BME280;73595;53.084;6.696;2023-12-20T11:59:30;101066.63;;;6.95;81.82
83633;BME280;73595;53.084;6.696;2023-12-20T12:02:01;101016.34;;;6.50;82.20
83633;BME280;73595;53.084;6.696;2023-12-20T12:04:27;101032.16;;;6.50;83.53
83633;BME280;73595;53.084;6.696;2023-12-20T12:06:53;101064.59;;;6.70;83.25
83633;BME280;73595;53.084;6.696;2023-12-20T12:09:22;100955.81;;;6.11;83.57
83633;BME280;73595;53.084;6.696;2023-12-20T12:11:47;101035.75;;;6.68;83.48
83633;BME280;73595;53.084;6.696;2023-12-20T12:14:18;101038.28;;;6.70;84.14
83633;BME280;73595;53.084;6.696;2023-12-20T12:16:53;101010.00;;;6.53;84.54
83633;BME280;73595;53.084;6.696;2023-12-20T12:19:26;101035.63;;;6.70;83.98
83633;BME280;73595;53.084;6.696;2023-12-20T12:22:24;100994.19;;;6.43;84.28
83633;BME280;73595;53.084;6.696;2023-12-20T12:24:52;101033.41;;;6.65;85.26
83633;BME280;73595;53.084;6.696;2023-12-20T12:27:19;100934.50;;;6.05;85.23
83633;BME280;73595;53.084;6.696;2023-12-20T12:30:05;101040.06;;;6.60;85.12
83633;BME280;73595;53.084;6.696;2023-12-20T12:32:33;100982.69;;;6.24;85.91
83633;BME280;73595;53.084;6.696;2023-12-20T12:34:58;101037.97;;;6.54;86.28
83633;BME280;73595;53.084;6.696;2023-12-20T12:37:23;101034.66;;;6.51;86.80
83633;BME280;73595;53.084;6.696;2023-12-20T12:39:49;101031.19;;;6.41;87.29
83633;BME280;73595;53.084;6.696;2023-12-20T12:42:18;101028.28;;;6.44;87.64
83633;BME280;73595;53.084;6.696;2023-12-20T12:44:46;101002.66;;;6.27;88.66
83633;BME280;73595;53.084;6.696;2023-12-20T12:47:11;101024.81;;;6.44;88.90
83633;BME280;73595;53.084;6.696;2023-12-20T12:49:36;101021.50;;;6.42;89.22
83633;BME280;73595;53.084;6.696;2023-12-20T12:52:07;100962.78;;;6.12;89.42
83633;BME280;73595;53.084;6.696;2023-12-20T12:54:38;100983.13;;;6.20;89.25
83633;BME280;73595;53.084;6.696;2023-12-20T12:57:09;100964.72;;;6.20;89.73
83633;BME280;73595;53.084;6.696;2023-12-20T12:59:37;100870.81;;;5.62;90.10
83633;BME280;73595;53.084;6.696;2023-12-20T13:02:04;101013.16;;;6.56;89.97
83633;BME280;73595;53.084;6.696;2023-12-20T13:04:35;100982.72;;;6.34;90.13
83633;BME280;73595;53.084;6.696;2023-12-20T13:07:01;100977.03;;;6.29;90.39
83633;BME280;73595;53.084;6.696;2023-12-20T13:09:28;100985.63;;;6.31;90.46
83633;BME280;73595;53.084;6.696;2023-12-20T13:12:06;100962.91;;;6.20;90.55
83633;BME280;73595;53.084;6.696;2023-12-20T13:14:33;101009.44;;;6.49;90.52